Time;durP1;ratioP1;P1;durP2;ratioP2;P2;SDS_P1;SDS_P2;PMS_P1;PMS_P2;Temp;Humidity;BMP_temperature;BMP_pressure;BME280_temperature;BME280_humidity;BME280_pressure;Samples;Min_cycle;Max_cycle;Signal;HPM_P1;HPM_P2
2022/09/03 00:01:24;;;;;;;1.50;0.70;;;20.80;41.40;;;;;;4945514;29;20567;-75
2022/09/03 00:04:02;;;;;;;4.77;1.17;;;20.80;41.50;;;;;;4953681;29;20579;-75
2022/09/03 00:06:41;;;;;;;2.60;0.70;;;20.70;41.60;;;;;;4973819;28;20602;-75
2022/09/03 00:09:24;;;;;;;1.70;0.70;;;20.70;41.70;;;;;;4955252;28;20646;-75
2022/09/03 00:12:11;;;;;;;2.97;0.80;;;20.70;41.70;;;;;;4973752;28;20614;-75
2022/09/03 00:14:49;;;;;;;1.90;0.70;;;20.60;41.70;;;;;;4973486;28;20574;-75
2022/09/03 00:17:18;;;;;;;1.57;0.70;;;20.60;41.60;;;;;;4956376;28;20567;-75
2022/09/03 00:19:59;;;;;;;1.50;0.90;;;20.60;41.70;;;;;;4973265;28;20591;-75
2022/09/03 00:22:40;;;;;;;1.53;0.63;;;20.50;42.30;;;;;;4966737;28;20606;-75
2022/09/03 00:25:13;;;;;;;1.73;0.87;;;20.50;42.30;;;;;;4955258;28;20576;-75
2022/09/03 00:27:42;;;;;;;1.73;0.80;;;20.40;42.10;;;;;;4973665;28;20654;-75
2022/09/03 00:30:14;;;;;;;2.17;0.80;;;20.40;42.10;;;;;;4970666;28;20615;-75
2022/09/03 00:33:05;;;;;;;2.50;0.80;;;20.40;42.40;;;;;;4952795;28;20577;-75
2022/09/03 00:35:43;;;;;;;1.40;0.70;;;20.30;42.40;;;;;;4952833;29;21173;-75
2022/09/03 00:38:09;;;;;;;3.53;0.80;;;20.30;42.30;;;;;;4955160;28;20735;-75
2022/09/03 00:40:42;;;;;;;1.50;0.80;;;20.30;42.60;;;;;;4952383;29;20670;-75
2022/09/03 00:43:17;;;;;;;2.90;0.80;;;20.30;42.80;;;;;;4954993;28;20544;-75
2022/09/03 00:45:49;;;;;;;2.07;0.70;;;20.30;42.70;;;;;;4973178;28;20571;-75
2022/09/03 00:48:34;;;;;;;1.83;0.70;;;20.20;42.60;;;;;;4973149;28;20578;-75
2022/09/03 00:51:12;;;;;;;1.47;0.77;;;20.20;43.00;;;;;;4972758;28;20571;-75
2022/09/03 00:53:50;;;;;;;2.30;0.80;;;20.20;43.00;;;;;;4972888;28;20567;-75
2022/09/03 00:56:44;;;;;;;1.50;0.70;;;20.20;42.80;;;;;;4928754;29;20584;-75
2022/09/03 00:59:31;;;;;;;2.10;0.70;;;20.10;43.20;;;;;;4971878;28;20627;-75
2022/09/03 01:02:17;;;;;;;1.50;0.70;;;20.10;43.70;;;;;;4972708;28;20567;-75
2022/09/03 01:05:01;;;;;;;2.13;0.70;;;20.00;43.30;;;;;;4968552;28;21220;-75
2022/09/03 01:07:53;;;;;;;2.13;0.60;;;20.00;43.10;;;;;;4966309;28;20637;-75
2022/09/03 01:10:37;;;;;;;1.70;0.70;;;19.90;43.30;;;;;;4965133;28;20606;-75
2022/09/03 01:13:02;;;;;;;2.90;0.80;;;19.90;43.40;;;;;;4972798;28;20662;-75
2022/09/03 01:15:42;;;;;;;2.30;0.67;;;19.90;44.00;;;;;;4972757;28;20655;-75
2022/09/03 01:18:20;;;;;;;3.50;0.63;;;19.90;43.60;;;;;;4972631;28;20592;-75
2022/09/03 01:20:57;;;;;;;4.27;0.80;;;19.90;43.50;;;;;;4920077;29;20575;-75
2022/09/03 01:23:40;;;;;;;1.70;0.80;;;19.80;44.30;;;;;;4933663;28;20594;-75
2022/09/03 01:26:26;;;;;;;1.60;0.63;;;19.80;43.80;;;;;;4982705;28;20681;-75
2022/09/03 01:29:10;;;;;;;1.77;0.70;;;19.80;43.80;;;;;;4991979;28;20700;-75
2022/09/03 01:31:48;;;;;;;2.73;0.80;;;19.80;43.80;;;;;;4971271;28;21151;-75
2022/09/03 01:34:38;;;;;;;3.27;0.60;;;19.80;44.20;;;;;;4973311;28;20605;-75
2022/09/03 01:37:28;;;;;;;3.00;0.67;;;19.80;44.20;;;;;;4963599;28;20586;-75
2022/09/03 01:40:08;;;;;;;1.97;0.70;;;19.70;44.20;;;;;;4983510;28;20713;-75
2022/09/03 01:43:00;;;;;;;2.03;0.70;;;19.70;44.20;;;;;;4988407;28;20574;-75
2022/09/03 01:45:32;;;;;;;1.40;0.60;;;19.70;44.80;;;;;;4989334;28;20589;-75
2022/09/03 01:48:21;;;;;;;1.60;0.67;;;19.70;44.40;;;;;;4995800;28;20569;-75
2022/09/03 01:51:09;;;;;;;1.40;0.70;;;19.60;44.60;;;;;;4995737;28;20997;-75
2022/09/03 01:53:54;;;;;;;2.27;0.60;;;19.70;44.30;;;;;;4995561;28;20612;-75
2022/09/03 01:56:41;;;;;;;1.57;0.60;;;19.60;44.30;;;;;;4988284;28;20883;-75
2022/09/03 01:59:33;;;;;;;1.70;0.70;;;19.60;45.60;;;;;;4995348;28;21017;-75
2022/09/03 02:02:20;;;;;;;1.90;0.80;;;19.60;44.90;;;;;;4994750;28;20589;-75
2022/09/03 02:05:03;;;;;;;1.87;0.60;;;19.50;45.10;;;;;;4974961;28;21108;-74
2022/09/03 02:07:42;;;;;;;3.30;0.80;;;19.50;45.00;;;;;;4958711;28;20585;-75
2022/09/03 02:10:13;;;;;;;2.43;0.70;;;19.50;45.00;;;;;;4994122;28;20593;-74
2022/09/03 02:12:43;;;;;;;2.57;0.60;;;19.50;45.30;;;;;;4995289;28;21096;-75
2022/09/03 02:15:14;;;;;;;2.10;0.60;;;19.50;45.20;;;;;;4977323;28;20662;-75
2022/09/03 02:17:42;;;;;;;2.03;0.60;;;19.50;45.30;;;;;;4995226;28;20784;-75
2022/09/03 02:20:12;;;;;;;1.40;0.70;;;19.50;45.20;;;;;;4994898;28;20994;-74
2022/09/03 02:22:39;;;;;;;1.50;0.70;;;19.50;45.10;;;;;;4974497;28;20938;-75
2022/09/03 02:25:06;;;;;;;1.60;0.80;;;19.50;45.70;;;;;;4976541;28;20575;-75
2022/09/03 02:27:32;;;;;;;2.33;0.77;;;19.40;45.40;;;;;;4994992;28;21122;-75
2022/09/03 02:29:59;;;;;;;1.50;0.70;;;19.40;45.50;;;;;;4994655;28;20737;-75
2022/09/03 02:32:25;;;;;;;1.43;0.70;;;19.40;45.90;;;;;;4994833;28;20629;-74
2022/09/03 02:34:51;;;;;;;1.60;0.70;;;19.40;45.80;;;;;;4994795;28;20605;-75
2022/09/03 02:37:18;;;;;;;1.80;0.90;;;19.40;45.80;;;;;;4995006;28;20602;-74
2022/09/03 02:39:44;;;;;;;1.50;0.70;;;19.40;46.00;;;;;;4973997;28;20191;-74
2022/09/03 02:42:12;;;;;;;2.07;0.70;;;19.40;46.30;;;;;;4994098;28;20617;-75
2022/09/03 02:44:43;;;;;;;1.47;0.70;;;19.40;46.30;;;;;;4974275;28;20567;-74
2022/09/03 02:47:09;;;;;;;1.60;0.60;;;19.30;46.10;;;;;;4993939;28;20566;-75
2022/09/03 02:49:35;;;;;;;1.53;0.70;;;19.30;46.20;;;;;;4995235;28;20668;-74
2022/09/03 02:52:05;;;;;;;2.17;0.60;;;19.30;46.20;;;;;;4975493;28;20258;-74
2022/09/03 02:54:34;;;;;;;3.00;0.80;;;19.30;46.40;;;;;;4994139;28;20574;-74
2022/09/03 02:57:01;;;;;;;1.50;0.70;;;19.30;46.50;;;;;;4994388;28;20578;-74
2022/09/03 02:59:27;;;;;;;2.67;0.77;;;19.30;46.50;;;;;;4993888;28;20633;-75
2022/09/03 03:01:54;;;;;;;1.57;0.70;;;19.30;46.50;;;;;;4994318;28;20659;-75
2022/09/03 03:04:20;;;;;;;3.83;0.73;;;19.30;46.60;;;;;;4974059;28;20575;-75
2022/09/03 03:06:46;;;;;;;2.23;0.60;;;19.30;46.60;;;;;;4990475;28;20566;-75
2022/09/03 03:09:11;;;;;;;2.27;0.60;;;19.30;46.70;;;;;;4994045;28;20606;-75
2022/09/03 03:11:38;;;;;;;1.70;0.70;;;19.20;46.70;;;;;;4994193;28;20175;-75
2022/09/03 03:14:04;;;;;;;2.23;0.60;;;19.20;47.00;;;;;;4994147;28;20637;-75
2022/09/03 03:16:29;;;;;;;2.40;0.73;;;19.20;47.10;;;;;;4994084;28;20571;-75
2022/09/03 03:18:56;;;;;;;1.97;0.70;;;19.20;46.80;;;;;;4993860;28;20207;-74
2022/09/03 03:21:22;;;;;;;2.20;0.80;;;19.20;47.20;;;;;;4973155;28;20514;-74
2022/09/03 03:23:48;;;;;;;1.70;0.70;;;19.20;47.30;;;;;;4957294;28;20577;-75
2022/09/03 03:26:17;;;;;;;1.60;0.80;;;19.20;46.90;;;;;;4993871;28;20206;-75
2022/09/03 03:28:45;;;;;;;2.40;0.80;;;19.20;47.10;;;;;;4993831;28;20600;-75
2022/09/03 03:31:30;;;;;;;1.40;0.67;;;19.20;47.00;;;;;;4959580;28;20581;-75
2022/09/03 03:34:02;;;;;;;1.40;0.60;;;19.20;47.10;;;;;;4974527;28;20588;-75
2022/09/03 03:36:31;;;;;;;3.20;0.70;;;19.20;47.20;;;;;;4994013;28;21127;-75
2022/09/03 03:38:58;;;;;;;1.50;0.70;;;19.20;47.20;;;;;;4973919;28;21226;-75
2022/09/03 03:41:32;;;;;;;1.63;0.60;;;19.20;47.10;;;;;;4993402;28;20573;-75
2022/09/03 03:44:00;;;;;;;2.10;0.70;;;19.20;47.10;;;;;;4993737;28;20615;-75
2022/09/03 03:46:36;;;;;;;1.50;0.70;;;19.20;47.80;;;;;;4993560;28;20972;-75
2022/09/03 03:49:03;;;;;;;1.30;0.70;;;19.20;47.50;;;;;;4958504;28;20708;-75
2022/09/03 03:51:29;;;;;;;1.93;0.73;;;19.20;47.60;;;;;;4956499;28;21223;-75
2022/09/03 03:53:56;;;;;;;1.87;0.93;;;19.20;47.40;;;;;;4990940;28;20578;-75
2022/09/03 03:56:23;;;;;;;1.63;0.60;;;19.20;47.40;;;;;;4993686;28;20790;-75
2022/09/03 03:58:48;;;;;;;1.50;0.70;;;19.10;47.50;;;;;;4993178;28;20634;-75
2022/09/03 04:01:22;;;;;;;1.50;0.60;;;19.10;47.40;;;;;;4972577;28;20578;-75
2022/09/03 04:03:48;;;;;;;2.23;0.60;;;19.10;47.70;;;;;;4972694;28;20522;-75
2022/09/03 04:06:18;;;;;;;2.07;0.60;;;19.10;47.60;;;;;;4971943;28;20582;-75
2022/09/03 04:08:46;;;;;;;1.40;0.60;;;19.10;47.70;;;;;;4989121;28;20195;-75
2022/09/03 04:11:14;;;;;;;3.93;0.60;;;19.10;47.50;;;;;;4992831;28;20571;-75
2022/09/03 04:13:42;;;;;;;2.17;0.60;;;19.20;47.60;;;;;;4972571;28;20575;-75
2022/09/03 04:16:19;;;;;;;2.07;1.23;;;19.20;47.60;;;;;;4990994;28;20571;-75
2022/09/03 04:18:48;;;;;;;1.37;0.50;;;19.20;48.40;;;;;;4992840;28;20641;-75
2022/09/03 04:21:19;;;;;;;1.57;0.90;;;19.20;47.60;;;;;;4943061;28;20566;-75
2022/09/03 04:23:46;;;;;;;1.30;0.60;;;19.20;47.80;;;;;;4993019;28;20961;-79
2022/09/03 04:26:16;;;;;;;2.43;0.70;;;19.20;47.70;;;;;;4993146;28;20661;-80
2022/09/03 04:28:42;;;;;;;1.30;0.60;;;19.30;47.90;;;;;;4972255;28;20607;-80
2022/09/03 04:31:09;;;;;;;1.50;0.60;;;19.30;47.90;;;;;;4991546;28;20963;-80
2022/09/03 04:33:38;;;;;;;1.30;0.60;;;19.30;47.90;;;;;;4972312;28;20592;-80
2022/09/03 04:36:12;;;;;;;2.23;0.70;;;19.30;47.90;;;;;;4991537;28;20652;-81
2022/09/03 04:38:40;;;;;;;1.50;0.60;;;19.30;48.00;;;;;;4992573;28;20636;-80
2022/09/03 04:41:08;;;;;;;1.47;0.60;;;19.20;48.00;;;;;;4989964;28;20579;-80
2022/09/03 04:43:34;;;;;;;6.43;0.70;;;19.20;47.80;;;;;;4972128;28;20575;-80
2022/09/03 04:46:02;;;;;;;2.63;0.70;;;19.20;48.00;;;;;;4973283;28;20606;-80
2022/09/03 04:48:29;;;;;;;1.70;0.70;;;19.20;47.90;;;;;;4992703;28;20662;-81
2022/09/03 04:51:04;;;;;;;2.67;0.60;;;19.20;47.90;;;;;;4992335;28;20574;-81
2022/09/03 04:53:40;;;;;;;3.10;0.60;;;19.20;48.00;;;;;;4997738;28;20673;-81
2022/09/03 04:56:17;;;;;;;1.30;0.60;;;19.20;48.10;;;;;;4992506;28;20649;-81
2022/09/03 04:58:44;;;;;;;1.30;0.63;;;19.20;48.40;;;;;;4992080;28;20644;-81
2022/09/03 05:01:15;;;;;;;1.50;0.70;;;19.10;48.10;;;;;;5004509;23;20747;-72
2022/09/03 05:03:41;;;;;;;1.30;0.60;;;19.20;48.50;;;;;;5020035;28;20582;-74
2022/09/03 05:06:08;;;;;;;2.10;0.70;;;19.20;48.40;;;;;;5028552;28;21143;-75
2022/09/03 05:08:35;;;;;;;1.40;0.60;;;19.20;48.50;;;;;;5015260;28;20177;-74
2022/09/03 05:11:05;;;;;;;1.40;0.70;;;19.10;48.40;;;;;;5028830;28;20613;-74
2022/09/03 05:13:32;;;;;;;1.30;0.63;;;19.20;48.50;;;;;;5011616;28;20596;-75
2022/09/03 05:16:03;;;;;;;1.40;0.67;;;19.10;48.80;;;;;;4993620;28;21160;-74
2022/09/03 05:18:29;;;;;;;1.30;0.70;;;19.20;48.60;;;;;;5011709;28;20617;-74
2022/09/03 05:21:07;;;;;;;2.53;0.70;;;19.20;48.70;;;;;;4993723;28;20668;-74
2022/09/03 05:23:41;;;;;;;1.40;0.70;;;19.20;48.80;;;;;;5011516;28;20573;-74
2022/09/03 05:26:10;;;;;;;2.33;0.60;;;19.30;48.80;;;;;;5011031;28;20569;-74
2022/09/03 05:28:38;;;;;;;2.63;0.60;;;19.30;48.80;;;;;;5010338;28;20613;-74
2022/09/03 05:31:05;;;;;;;4.50;0.60;;;19.30;48.90;;;;;;4993565;28;20601;-74
2022/09/03 05:33:41;;;;;;;1.40;0.60;;;19.30;48.90;;;;;;5011468;28;20558;-74
2022/09/03 05:36:09;;;;;;;1.40;0.70;;;19.30;49.00;;;;;;4980671;28;20632;-74
2022/09/03 05:38:35;;;;;;;2.00;0.80;;;19.40;49.80;;;;;;4991249;28;20634;-73
2022/09/03 05:41:02;;;;;;;2.07;0.70;;;19.40;49.20;;;;;;4990943;28;20610;-74
2022/09/03 05:43:29;;;;;;;1.27;0.63;;;19.40;49.60;;;;;;4990656;28;20930;-75
2022/09/03 05:46:02;;;;;;;2.63;0.90;;;19.50;49.10;;;;;;4991485;28;20575;-74
2022/09/03 05:48:29;;;;;;;3.77;0.80;;;19.50;49.20;;;;;;4992737;28;21162;-76
2022/09/03 05:51:02;;;;;;;1.50;0.70;;;19.50;49.20;;;;;;4975691;28;20587;-74
2022/09/03 05:53:29;;;;;;;1.53;0.90;;;19.50;49.60;;;;;;4991352;28;20597;-74
2022/09/03 05:56:05;;;;;;;1.50;0.70;;;19.60;49.40;;;;;;4990623;28;20585;-74
2022/09/03 05:58:32;;;;;;;1.40;0.60;;;19.60;49.60;;;;;;4991286;28;21029;-75
2022/09/03 06:00:58;;;;;;;1.50;0.60;;;19.70;49.50;;;;;;4989368;28;20612;-75
2022/09/03 06:03:24;;;;;;;1.70;0.60;;;19.80;49.50;;;;;;4971819;28;20674;-76
2022/09/03 06:05:53;;;;;;;1.70;0.60;;;19.80;49.60;;;;;;4971574;28;20577;-74
2022/09/03 06:08:20;;;;;;;1.97;0.60;;;19.90;49.40;;;;;;4971851;28;20578;-74
2022/09/03 06:10:46;;;;;;;3.03;0.70;;;20.00;49.50;;;;;;4971196;28;20616;-73
2022/09/03 06:13:13;;;;;;;1.30;0.60;;;20.10;49.40;;;;;;4975017;28;20598;-74
2022/09/03 06:15:38;;;;;;;1.40;0.50;;;20.10;49.40;;;;;;4959359;28;20996;-73
2022/09/03 06:18:05;;;;;;;1.83;0.70;;;20.20;49.50;;;;;;4977588;28;20648;-75
2022/09/03 06:20:32;;;;;;;1.47;0.63;;;20.30;49.50;;;;;;4978407;28;20579;-73
2022/09/03 06:22:57;;;;;;;5.57;0.90;;;20.30;49.50;;;;;;4979189;28;20688;-73
2022/09/03 06:25:23;;;;;;;1.40;0.60;;;20.30;49.40;;;;;;4946298;28;20603;-74
2022/09/03 06:27:49;;;;;;;1.80;0.70;;;20.40;49.40;;;;;;4985306;28;20586;-74
2022/09/03 06:30:15;;;;;;;2.70;0.70;;;20.40;49.40;;;;;;4982639;28;20611;-75
2022/09/03 06:32:51;;;;;;;7.10;1.10;;;20.50;49.40;;;;;;4975091;28;20714;-74
2022/09/03 06:35:17;;;;;;;2.47;0.70;;;20.50;49.40;;;;;;4975444;28;20593;-74
2022/09/03 06:37:44;;;;;;;3.93;0.70;;;20.60;49.30;;;;;;4972227;28;20630;-74
2022/09/03 06:40:19;;;;;;;2.57;0.80;;;20.60;49.30;;;;;;4974881;28;20593;-75
2022/09/03 06:42:58;;;;;;;1.37;0.63;;;20.60;49.20;;;;;;4956469;28;20718;-74
2022/09/03 06:45:24;;;;;;;1.90;0.73;;;20.70;49.40;;;;;;4975231;28;20575;-74
2022/09/03 06:47:49;;;;;;;4.70;0.77;;;20.80;49.40;;;;;;4954217;28;20595;-73
2022/09/03 06:50:17;;;;;;;1.83;0.80;;;20.90;49.50;;;;;;4975142;28;20670;-73
2022/09/03 06:52:42;;;;;;;7.63;0.80;;;21.00;49.40;;;;;;4941343;28;20638;-73
2022/09/03 06:55:08;;;;;;;2.60;0.70;;;21.10;49.30;;;;;;4975062;28;20582;-74
2022/09/03 06:57:34;;;;;;;1.70;0.60;;;21.20;49.20;;;;;;4974842;28;20171;-74
2022/09/03 07:00:01;;;;;;;1.87;0.70;;;21.40;49.20;;;;;;4993091;28;21149;-73
2022/09/03 07:02:27;;;;;;;2.43;0.70;;;21.40;49.10;;;;;;5007316;28;20205;-74
2022/09/03 07:04:53;;;;;;;1.30;0.60;;;21.50;49.20;;;;;;5014199;28;20550;-75
2022/09/03 07:07:22;;;;;;;1.70;0.63;;;21.70;49.40;;;;;;4980303;28;20208;-76
2022/09/03 07:09:47;;;;;;;1.30;0.50;;;21.90;49.30;;;;;;4996194;28;20572;-74
2022/09/03 07:12:15;;;;;;;1.40;0.53;;;22.10;49.30;;;;;;4996043;28;20747;-75
2022/09/03 07:14:41;;;;;;;1.77;0.67;;;22.50;49.60;;;;;;4997051;28;20170;-75
2022/09/03 07:17:07;;;;;;;1.27;0.53;;;22.80;49.50;;;;;;5013806;28;20584;-75
2022/09/03 07:19:32;;;;;;;1.50;0.70;;;23.20;49.00;;;;;;5013616;28;20293;-74
2022/09/03 07:21:59;;;;;;;1.77;0.70;;;23.60;48.70;;;;;;4979469;28;20194;-74
2022/09/03 07:24:26;;;;;;;1.90;0.60;;;24.00;48.80;;;;;;5013921;28;20166;-74
2022/09/03 07:26:52;;;;;;;1.70;0.80;;;24.30;48.40;;;;;;5013532;28;20593;-74
2022/09/03 07:29:20;;;;;;;1.57;0.70;;;24.60;47.40;;;;;;5013196;28;20602;-74
2022/09/03 07:31:49;;;;;;;1.67;0.63;;;24.60;46.80;;;;;;5013169;28;20194;-74
2022/09/03 07:34:15;;;;;;;1.80;0.70;;;24.60;46.70;;;;;;5013425;28;20569;-74
2022/09/03 07:36:46;;;;;;;2.10;0.60;;;24.50;46.00;;;;;;4995634;28;20589;-74
2022/09/03 07:39:13;;;;;;;1.70;0.70;;;24.50;46.30;;;;;;5012716;28;20613;-74
2022/09/03 07:41:44;;;;;;;1.93;0.70;;;24.50;46.40;;;;;;5012279;28;20597;-74
2022/09/03 07:44:18;;;;;;;3.20;1.40;;;24.50;46.20;;;;;;5013254;28;20660;-74
2022/09/03 07:46:46;;;;;;;1.70;0.70;;;24.60;46.50;;;;;;4995761;28;20632;-74
2022/09/03 07:49:12;;;;;;;1.80;0.70;;;24.80;46.50;;;;;;5015017;28;20573;-74
2022/09/03 07:51:38;;;;;;;2.70;0.60;;;24.80;46.20;;;;;;5014197;28;20605;-74
2022/09/03 07:54:08;;;;;;;1.50;0.60;;;25.00;46.20;;;;;;5015766;28;20593;-74
2022/09/03 07:56:35;;;;;;;4.40;0.97;;;25.10;45.70;;;;;;5017119;28;20570;-76
2022/09/03 07:59:02;;;;;;;2.50;0.80;;;25.10;45.60;;;;;;5015584;28;21003;-74
2022/09/03 08:01:30;;;;;;;1.50;0.80;;;25.20;45.80;;;;;;5012843;28;20625;-74
2022/09/03 08:03:56;;;;;;;2.07;1.10;;;25.40;45.90;;;;;;5012862;28;20608;-74
2022/09/03 08:06:25;;;;;;;2.00;0.97;;;25.60;45.60;;;;;;5012086;28;20570;-73
2022/09/03 08:09:05;;;;;;;1.60;0.70;;;25.60;45.30;;;;;;5012746;28;20569;-73
2022/09/03 08:11:34;;;;;;;2.83;0.70;;;25.60;45.00;;;;;;5012243;28;20704;-74
2022/09/03 08:14:06;;;;;;;2.73;0.70;;;25.60;44.60;;;;;;5012558;28;20601;-74
2022/09/03 08:16:46;;;;;;;1.67;0.63;;;25.50;44.80;;;;;;5012580;28;20978;-74
2022/09/03 08:19:13;;;;;;;2.37;0.90;;;25.50;44.80;;;;;;5012140;28;20630;-74
2022/09/03 08:21:43;;;;;;;4.80;0.90;;;25.50;44.80;;;;;;4994679;28;20967;-74
2022/09/03 08:24:10;;;;;;;3.93;0.70;;;25.40;44.60;;;;;;5012196;28;20627;-74
2022/09/03 08:26:41;;;;;;;1.60;0.70;;;25.30;44.90;;;;;;5012179;28;20619;-74
2022/09/03 08:29:07;;;;;;;1.70;0.70;;;25.40;45.00;;;;;;5012210;28;20577;-74
2022/09/03 08:31:35;;;;;;;1.37;0.60;;;25.30;45.00;;;;;;5011948;28;20597;-74
2022/09/03 08:34:05;;;;;;;3.13;0.90;;;25.10;45.10;;;;;;5012028;28;20720;-74
2022/09/03 08:36:33;;;;;;;2.90;1.13;;;25.10;45.70;;;;;;5012048;28;20569;-74
2022/09/03 08:39:08;;;;;;;1.40;0.60;;;25.40;46.50;;;;;;5011660;28;20632;-74
2022/09/03 08:41:59;;;;;;;1.37;0.60;;;25.50;46.40;;;;;;5011609;28;20731;-74
2022/09/03 08:44:30;;;;;;;3.70;0.70;;;25.50;46.30;;;;;;5011968;28;20699;-75
2022/09/03 08:47:27;;;;;;;1.80;0.70;;;25.20;46.00;;;;;;4994366;28;20569;-77
2022/09/03 08:50:06;;;;;;;2.13;0.90;;;25.10;46.10;;;;;;4994624;28;20566;-77
2022/09/03 08:52:47;;;;;;;2.90;0.80;;;25.00;46.20;;;;;;5011367;28;21001;-78
2022/09/03 08:55:25;;;;;;;1.60;0.70;;;24.70;46.30;;;;;;5011873;28;20937;-78
2022/09/03 08:58:09;;;;;;;1.80;0.80;;;24.50;46.40;;;;;;4994261;28;20679;-77
2022/09/03 09:00:53;;;;;;;2.47;0.80;;;24.30;46.80;;;;;;4994084;28;20631;-77
2022/09/03 09:03:41;;;;;;;2.07;0.70;;;24.20;47.20;;;;;;5010497;28;20578;-77
2022/09/03 09:06:34;;;;;;;1.43;0.60;;;24.00;47.60;;;;;;5011869;28;20901;-78
2022/09/03 09:09:09;;;;;;;2.13;0.70;;;23.90;48.20;;;;;;5011753;28;20573;-78
2022/09/03 09:11:54;;;;;;;2.50;0.70;;;23.90;48.00;;;;;;4977979;28;20600;-77
2022/09/03 09:14:35;;;;;;;2.57;1.10;;;23.80;48.30;;;;;;5011607;28;20569;-78
2022/09/03 09:17:01;;;;;;;1.70;0.80;;;23.60;49.10;;;;;;5011786;28;20565;-77
2022/09/03 09:19:56;;;;;;;3.90;1.30;;;23.60;48.70;;;;;;4993449;28;20628;-78
2022/09/03 09:22:48;;;;;;;2.40;0.90;;;23.50;49.20;;;;;;5011269;28;20585;-78
2022/09/03 09:25:23;;;;;;;2.47;0.93;;;23.30;49.00;;;;;;4981287;28;21205;-74
2022/09/03 09:28:02;;;;;;;1.80;0.80;;;23.30;49.00;;;;;;4993760;28;20672;-74
2022/09/03 09:30:30;;;;;;;5.40;0.80;;;23.00;50.40;;;;;;5011176;28;20566;-74
2022/09/03 09:32:56;;;;;;;1.80;0.93;;;23.00;49.50;;;;;;5011014;28;20622;-73
2022/09/03 09:35:23;;;;;;;1.60;0.70;;;23.00;49.80;;;;;;5010222;28;20569;-78
2022/09/03 09:37:57;;;;;;;1.37;0.70;;;23.00;50.10;;;;;;4996433;28;20593;-78
2022/09/03 09:40:32;;;;;;;3.20;2.07;;;23.00;50.20;;;;;;5006110;28;20569;-78
2022/09/03 09:43:19;;;;;;;4.90;1.33;;;23.00;50.70;;;;;;4991206;28;20601;-78
2022/09/03 09:45:50;;;;;;;1.80;0.97;;;23.10;51.10;;;;;;5001322;28;20581;-79
2022/09/03 09:48:30;;;;;;;1.47;0.70;;;23.30;51.60;;;;;;4996225;28;20574;-79
2022/09/03 09:51:17;;;;;;;3.43;0.80;;;23.50;51.40;;;;;;4998514;28;20685;-79
2022/09/03 09:53:43;;;;;;;2.70;0.73;;;23.60;52.00;;;;;;5011292;28;20557;-79
2022/09/03 09:56:24;;;;;;;3.20;0.87;;;23.80;51.50;;;;;;4995762;28;20678;-79
2022/09/03 09:59:05;;;;;;;6.07;1.03;;;23.90;51.90;;;;;;5002650;28;20647;-78
2022/09/03 10:01:31;;;;;;;4.35;1.05;;;24.30;52.10;;;;;;4987079;28;20748;-79
2022/09/03 10:04:06;;;;;;;2.93;0.77;;;24.80;52.50;;;;;;4987682;28;20180;-78
2022/09/03 10:09:24;;;;;;;2.60;0.97;;;25.80;52.00;;;;;;4974182;28;21163;-80
2022/09/03 10:12:23;;;;;;;2.90;0.80;;;26.70;51.80;;;;;;4984860;28;20622;-79
2022/09/03 10:14:52;;;;;;;5.67;0.70;;;27.40;51.10;;;;;;4980016;28;20594;-73
2022/09/03 10:17:39;;;;;;;1.50;0.70;;;27.90;49.00;;;;;;4994912;28;20578;-73
2022/09/03 10:20:31;;;;;;;2.27;0.60;;;28.00;48.10;;;;;;4995029;28;20693;-73
2022/09/03 10:23:00;;;;;;;2.53;0.80;;;28.20;48.00;;;;;;4994891;28;21163;-73
2022/09/03 10:25:38;;;;;;;1.53;0.70;;;28.30;47.90;;;;;;4974260;28;20575;-73
2022/09/03 10:28:07;;;;;;;5.07;1.00;;;28.30;47.10;;;;;;4993624;28;21049;-73
2022/09/03 10:30:53;;;;;;;2.80;0.80;;;28.30;47.30;;;;;;4994807;28;20985;-74
2022/09/03 10:33:31;;;;;;;2.00;0.80;;;28.40;47.60;;;;;;4994544;28;20578;-74
2022/09/03 10:36:20;;;;;;;2.30;0.90;;;28.50;47.20;;;;;;4994872;28;20586;-74
2022/09/03 10:38:53;;;;;;;2.87;0.90;;;28.30;45.90;;;;;;4994716;28;20625;-75
2022/09/03 10:41:46;;;;;;;2.50;0.80;;;28.20;46.20;;;;;;4999894;28;21015;-82
2022/09/03 10:44:34;;;;;;;2.27;1.03;;;28.10;46.50;;;;;;4977499;28;20578;-82
2022/09/03 10:47:18;;;;;;;2.20;0.90;;;28.10;46.60;;;;;;4994873;28;20677;-82
2022/09/03 10:50:26;;;;;;;2.57;0.90;;;28.20;46.90;;;;;;4996470;28;20574;-82
2022/09/03 10:53:17;;;;;;;1.50;0.70;;;28.40;46.10;;;;;;4994261;28;20622;-82
2022/09/03 10:55:56;;;;;;;3.10;0.90;;;28.80;47.60;;;;;;4994764;28;20585;-83
2022/09/03 10:58:47;;;;;;;1.80;0.83;;;29.10;46.10;;;;;;4994741;28;21162;-82
2022/09/03 11:01:54;;;;;;;3.10;1.90;;;29.30;46.00;;;;;;4994068;28;20641;-81
2022/09/03 11:04:40;;;;;;;2.10;1.33;;;29.40;44.80;;;;;;4987824;28;20582;-79
2022/09/03 11:07:11;;;;;;;2.60;1.10;;;29.50;45.90;;;;;;4994630;28;21006;-79
2022/09/03 11:10:00;;;;;;;2.40;1.03;;;29.80;45.90;;;;;;4994081;28;20576;-81
2022/09/03 11:12:33;;;;;;;1.70;0.90;;;30.10;46.00;;;;;;4994275;28;20609;-81
2022/09/03 11:15:02;;;;;;;2.33;0.90;;;30.40;45.50;;;;;;4994244;28;20915;-80
2022/09/03 11:17:43;;;;;;;2.43;0.90;;;30.60;44.90;;;;;;4994197;28;20710;-81
2022/09/03 11:20:22;;;;;;;2.67;1.00;;;30.80;45.00;;;;;;4993729;28;20593;-81
2022/09/03 11:22:53;;;;;;;1.70;1.03;;;30.90;44.60;;;;;;4999407;28;20600;-81
2022/09/03 11:25:24;;;;;;;1.80;0.80;;;31.00;44.40;;;;;;4994430;28;20571;-81
2022/09/03 11:28:24;;;;;;;2.27;1.10;;;31.20;44.20;;;;;;4993902;28;20653;-81
2022/09/03 11:31:17;;;;;;;2.70;0.93;;;31.30;43.20;;;;;;4976039;28;20578;-82
2022/09/03 11:33:49;;;;;;;2.77;1.10;;;31.30;43.50;;;;;;4993790;28;20683;-81
2022/09/03 11:36:33;;;;;;;2.77;1.10;;;31.30;43.30;;;;;;4957192;28;20591;-81
2022/09/03 11:38:59;;;;;;;2.23;1.00;;;31.10;43.10;;;;;;4991777;28;20780;-80
2022/09/03 11:41:26;;;;;;;1.67;0.90;;;31.30;43.40;;;;;;4993443;28;20697;-81
2022/09/03 11:43:53;;;;;;;2.33;1.00;;;31.20;43.70;;;;;;4989614;28;20571;-82
2022/09/03 11:46:22;;;;;;;1.70;0.80;;;31.40;44.00;;;;;;4956906;28;20583;-81
2022/09/03 11:49:10;;;;;;;2.33;1.70;;;31.60;43.90;;;;;;4990288;28;20629;-81
2022/09/03 11:51:40;;;;;;;2.33;1.00;;;31.40;42.30;;;;;;4993305;28;20642;-81
2022/09/03 11:54:26;;;;;;;2.40;1.20;;;31.40;42.90;;;;;;4993574;28;20575;-81
2022/09/03 11:57:12;;;;;;;1.63;0.90;;;31.00;41.90;;;;;;4974750;28;20700;-80
2022/09/03 11:59:41;;;;;;;1.50;0.80;;;30.70;42.30;;;;;;4996758;28;20638;-81
2022/09/03 12:02:27;;;;;;;1.77;0.97;;;30.60;43.00;;;;;;4992589;28;20630;-81
2022/09/03 12:05:04;;;;;;;2.33;0.80;;;30.50;43.30;;;;;;4994314;28;20612;-81
2022/09/03 12:07:49;;;;;;;1.90;1.17;;;30.70;43.90;;;;;;4994363;28;20986;-82
2022/09/03 12:10:33;;;;;;;1.83;1.00;;;30.70;43.10;;;;;;4992548;28;20586;-81
2022/09/03 12:13:14;;;;;;;1.83;1.00;;;30.80;43.50;;;;;;4975385;28;20599;-81
2022/09/03 12:16:07;;;;;;;2.30;1.30;;;30.70;43.70;;;;;;4992958;28;20609;-81
2022/09/03 12:18:35;;;;;;;1.90;1.20;;;30.60;43.60;;;;;;4976413;28;20621;-82
2022/09/03 12:21:04;;;;;;;1.83;1.00;;;30.60;43.70;;;;;;4993206;28;20601;-82
2022/09/03 12:23:41;;;;;;;2.33;1.00;;;30.40;43.80;;;;;;4973643;28;20575;-80
2022/09/03 12:26:15;;;;;;;1.73;1.00;;;30.20;44.10;;;;;;4975602;28;20659;-81
2022/09/03 12:28:46;;;;;;;1.80;0.80;;;30.10;44.30;;;;;;4972576;28;20582;-82
2022/09/03 12:31:22;;;;;;;1.90;1.17;;;30.10;44.60;;;;;;4992216;28;20605;-81
2022/09/03 12:33:53;;;;;;;3.13;1.20;;;30.20;45.00;;;;;;4993305;28;20585;-80
2022/09/03 12:36:21;;;;;;;1.70;1.10;;;30.10;45.00;;;;;;4997299;28;20689;-81
2022/09/03 12:38:47;;;;;;;1.80;1.00;;;30.10;45.00;;;;;;4992788;28;20630;-81
2022/09/03 12:41:22;;;;;;;1.87;1.23;;;30.00;45.20;;;;;;4992361;28;20693;-80
2022/09/03 12:43:53;;;;;;;3.57;1.37;;;29.90;45.30;;;;;;4992597;28;20589;-81
2022/09/03 12:46:23;;;;;;;1.60;1.10;;;30.10;45.30;;;;;;4992509;28;20594;-80
2022/09/03 12:49:02;;;;;;;2.20;1.00;;;30.10;45.20;;;;;;4992643;28;20610;-81
2022/09/03 12:51:35;;;;;;;1.40;0.80;;;29.90;45.00;;;;;;4971415;28;20597;-81
2022/09/03 12:54:04;;;;;;;1.40;0.90;;;29.70;44.60;;;;;;4990935;28;20566;-79
2022/09/03 12:56:33;;;;;;;1.70;1.00;;;29.50;44.60;;;;;;4972155;28;20567;-80
2022/09/03 12:59:05;;;;;;;8.90;1.20;;;29.30;44.90;;;;;;4990414;28;20644;-80
2022/09/03 13:01:48;;;;;;;3.03;1.00;;;29.20;45.30;;;;;;4960849;28;20713;-79
2022/09/03 13:04:28;;;;;;;3.80;1.20;;;29.10;45.40;;;;;;4994706;28;20676;-79
2022/09/03 13:07:05;;;;;;;1.53;0.90;;;29.00;45.60;;;;;;4991905;28;20569;-79
2022/09/03 13:09:36;;;;;;;2.27;1.20;;;28.80;46.50;;;;;;5011564;28;20978;-80
2022/09/03 13:12:06;;;;;;;2.43;1.40;;;28.60;45.80;;;;;;5017007;28;20593;-79
2022/09/03 13:14:43;;;;;;;4.87;4.37;;;28.30;47.00;;;;;;4978375;28;20577;-79
2022/09/03 13:17:27;;;;;;;3.87;3.20;;;28.10;47.60;;;;;;5011827;28;20572;-80
2022/09/03 13:20:15;;;;;;;2.10;1.60;;;27.90;48.30;;;;;;4993907;28;20656;-80
2022/09/03 13:22:43;;;;;;;1.90;1.30;;;27.70;48.30;;;;;;5010224;28;20601;-79
2022/09/03 13:25:29;;;;;;;2.27;1.37;;;27.70;47.90;;;;;;5011343;28;20564;-80